Time;durP1;ratioP1;P1;durP2;ratioP2;P2;SDS_P1;SDS_P2;PMS_P1;PMS_P2;Temp;Humidity;BMP_temperature;BMP_pressure;BME280_temperature;BME280_humidity;BME280_pressure;Samples;Min_cycle;Max_cycle;Signal;HPM_P1;HPM_P2
2022/01/01 00:02:01;;;;;;;2.73;1.97;;;;;;;11.88;65.04;98210.81;6206667;28;20239;-72
2022/01/01 00:05:05;;;;;;;1.97;1.80;;;;;;;11.85;64.82;98209.25;6214060;28;20221;-72
2022/01/01 00:08:08;;;;;;;2.27;1.70;;;;;;;11.93;64.62;98200.72;6211493;28;20234;-72
2022/01/01 00:11:12;;;;;;;2.73;1.57;;;;;;;11.90;64.96;98195.66;6206349;28;20325;-72
2022/01/01 00:14:25;;;;;;;2.57;1.70;;;;;;;11.82;65.16;98181.22;6215175;28;20249;-72
2022/01/01 00:17:27;;;;;;;3.93;2.00;;;;;;;11.67;65.88;98224.69;6214528;28;20311;-72
2022/01/01 00:20:30;;;;;;;2.27;2.00;;;;;;;11.75;65.48;98208.25;6219540;28;20239;-72
2022/01/01 00:23:32;;;;;;;2.30;1.53;;;;;;;11.80;65.46;98203.44;6214908;28;20587;-72
2022/01/01 00:26:34;;;;;;;2.43;1.80;;;;;;;11.88;64.57;98205.53;6211882;28;20219;-72
2022/01/01 00:29:36;;;;;;;2.87;1.60;;;;;;;11.85;65.05;98224.28;6214453;28;20329;-72
2022/01/01 00:32:39;;;;;;;2.00;1.60;;;;;;;11.79;64.90;98205.25;6213378;28;20588;-72
2022/01/01 00:35:41;;;;;;;2.33;1.90;;;;;;;11.74;64.58;98233.00;6204715;28;20233;-72
2022/01/01 00:38:43;;;;;;;3.13;1.67;;;;;;;11.65;64.91;98223.97;6222822;28;20238;-72
2022/01/01 00:41:47;;;;;;;2.10;1.70;;;;;;;11.59;65.36;98231.50;6215413;28;20241;-72
2022/01/01 00:44:49;;;;;;;2.77;2.33;;;;;;;11.53;65.64;98232.81;6207908;28;20731;-72
2022/01/01 00:47:55;;;;;;;2.23;1.80;;;;;;;11.54;65.55;98246.88;6213968;28;20291;-72
2022/01/01 00:50:57;;;;;;;2.07;1.80;;;;;;;11.55;65.72;98251.19;6219793;28;20229;-72
2022/01/01 00:53:59;;;;;;;3.40;2.73;;;;;;;11.57;65.25;98246.66;6222981;28;20225;-72
2022/01/01 00:57:01;;;;;;;2.67;1.80;;;;;;;11.53;65.15;98240.75;6219064;28;20231;-71
2022/01/01 01:00:05;;;;;;;2.50;2.00;;;;;;;11.46;65.82;98247.44;6229846;28;20728;-72
2022/01/01 01:03:11;;;;;;;3.47;2.40;;;;;;;11.47;65.53;98254.44;6223290;28;20222;-72
2022/01/01 01:06:14;;;;;;;2.37;2.17;;;;;;;11.47;65.65;98272.94;6222804;28;20286;-71
2022/01/01 01:09:16;;;;;;;3.43;2.93;;;;;;;11.45;66.18;98251.06;6209561;28;20669;-72
2022/01/01 01:12:24;;;;;;;5.27;2.87;;;;;;;11.46;66.16;98247.44;6207875;28;20756;-72
2022/01/01 01:15:26;;;;;;;2.53;2.33;;;;;;;11.36;66.46;98249.94;6210718;28;21117;-72
2022/01/01 01:18:28;;;;;;;3.43;2.60;;;;;;;11.24;67.08;98244.72;6219655;28;20231;-72
2022/01/01 01:21:30;;;;;;;3.07;2.60;;;;;;;11.12;68.18;98254.38;6239218;28;20765;-72
2022/01/01 01:24:33;;;;;;;2.87;2.67;;;;;;;11.16;67.97;98276.13;6220278;28;20724;-72
2022/01/01 01:27:36;;;;;;;3.60;2.93;;;;;;;11.16;68.03;98287.56;6195617;28;20233;-71
2022/01/01 01:30:39;;;;;;;3.20;2.90;;;;;;;11.23;67.70;98275.56;6212362;28;20695;-72
2022/01/01 01:33:44;;;;;;;3.37;3.00;;;;;;;11.18;67.92;98274.25;6216007;28;20848;-71
2022/01/01 01:36:46;;;;;;;3.27;2.97;;;;;;;11.06;68.53;98268.03;6211482;28;20643;-72
2022/01/01 01:39:48;;;;;;;4.17;2.90;;;;;;;11.01;68.66;98264.88;6209568;28;20599;-72
2022/01/01 01:42:50;;;;;;;3.07;2.60;;;;;;;11.01;68.66;98265.72;6218395;28;20225;-72
2022/01/01 01:45:52;;;;;;;3.50;2.97;;;;;;;10.99;68.89;98269.41;6230407;28;20226;-72
2022/01/01 01:48:55;;;;;;;3.70;2.70;;;;;;;10.97;68.80;98268.72;6211150;28;20238;-72
2022/01/01 01:51:57;;;;;;;3.27;2.97;;;;;;;10.92;69.20;98284.88;6212432;28;20234;-72
2022/01/01 01:55:01;;;;;;;3.60;3.27;;;;;;;10.92;69.34;98271.69;6212140;28;20212;-72
2022/01/01 01:58:03;;;;;;;3.57;3.27;;;;;;;10.97;69.21;98300.41;6215897;28;20217;-72
2022/01/01 02:01:24;;;;;;;3.63;3.27;;;;;;;10.99;69.17;98274.69;6216658;28;20238;-72
2022/01/01 02:04:26;;;;;;;3.83;3.23;;;;;;;10.96;69.64;98282.88;6213698;28;20246;-72
2022/01/01 02:07:30;;;;;;;4.00;3.33;;;;;;;10.91;69.69;98300.81;6208884;28;20233;-72
2022/01/01 02:10:35;;;;;;;5.30;3.50;;;;;;;10.84;70.19;98284.59;6220804;28;20237;-72
2022/01/01 02:14:01;;;;;;;4.53;3.67;;;;;;;10.80;70.28;98306.03;6214558;28;20234;-72
2022/01/01 02:20:11;;;;;;;4.00;3.50;;;;;;;10.80;70.08;98285.75;6224826;28;20703;-72
2022/01/01 02:23:14;;;;;;;5.97;3.77;;;;;;;10.79;70.24;98301.69;6229275;28;20353;-72
2022/01/01 02:26:16;;;;;;;4.40;3.57;;;;;;;10.80;70.23;98296.31;6219659;28;20931;-72
2022/01/01 02:29:20;;;;;;;5.13;3.50;;;;;;;10.83;69.88;98306.66;6216073;28;20236;-72
2022/01/01 02:32:21;;;;;;;6.93;3.73;;;;;;;10.89;69.84;98305.38;6216322;28;20233;-72
2022/01/01 02:35:24;;;;;;;4.43;3.73;;;;;;;10.88;70.31;98306.34;6214536;28;20316;-72
2022/01/01 02:38:26;;;;;;;5.57;4.03;;;;;;;10.85;70.36;98296.00;6234307;28;20222;-72
2022/01/01 02:41:28;;;;;;;4.57;3.70;;;;;;;10.78;70.62;98300.84;6212534;28;20259;-72
2022/01/01 02:44:30;;;;;;;4.33;3.33;;;;;;;10.73;70.56;98305.63;6222830;28;20230;-72
2022/01/01 02:47:32;;;;;;;5.60;3.80;;;;;;;10.68;70.92;98292.75;6225058;28;20249;-72
2022/01/01 02:50:34;;;;;;;7.90;3.93;;;;;;;10.58;71.27;98298.81;6224224;28;20539;-72
2022/01/01 02:53:36;;;;;;;4.27;3.47;;;;;;;10.60;71.36;98323.28;6205861;28;20230;-72
2022/01/01 02:56:38;;;;;;;4.30;3.40;;;;;;;10.58;71.10;98299.63;6212310;28;20860;-72
2022/01/01 02:59:40;;;;;;;4.13;3.30;;;;;;;10.49;71.52;98308.19;6209894;28;20697;-72
2022/01/01 03:02:45;;;;;;;5.40;3.37;;;;;;;10.37;71.98;98300.31;6222613;28;20238;-74
2022/01/01 03:05:47;;;;;;;4.70;3.60;;;;;;;10.30;72.41;98311.25;6220319;28;20776;-72
2022/01/01 03:08:51;;;;;;;5.23;3.27;;;;;;;10.24;72.94;98302.94;6208859;28;20700;-72
2022/01/01 03:11:53;;;;;;;4.90;3.33;;;;;;;10.27;72.59;98311.50;6220383;28;20374;-72
2022/01/01 03:14:55;;;;;;;5.03;3.67;;;;;;;10.45;72.11;98312.00;6236078;28;20243;-72
2022/01/01 03:17:57;;;;;;;4.37;3.23;;;;;;;10.46;72.02;98313.69;6216751;28;20238;-72
2022/01/01 03:20:59;;;;;;;4.83;2.90;;;;;;;10.43;72.02;98315.69;6226736;28;20239;-73
2022/01/01 03:24:01;;;;;;;3.43;2.70;;;;;;;10.34;72.37;98309.28;6208188;28;20239;-71
2022/01/01 03:27:04;;;;;;;4.87;3.17;;;;;;;10.22;73.00;98305.69;6215343;28;20241;-72
2022/01/01 03:30:06;;;;;;;3.60;2.97;;;;;;;10.17;73.27;98310.41;6227110;28;20227;-72
2022/01/01 03:33:08;;;;;;;3.17;2.87;;;;;;;10.16;73.18;98302.59;6226442;28;20307;-72
2022/01/01 03:36:10;;;;;;;4.27;2.70;;;;;;;10.06;73.40;98301.53;6227251;28;20222;-72
2022/01/01 03:39:18;;;;;;;4.20;2.63;;;;;;;10.09;73.67;98303.94;6206878;28;20308;-72
2022/01/01 03:42:20;;;;;;;4.20;2.80;;;;;;;10.23;72.99;98299.47;6223234;28;20292;-72
2022/01/01 03:45:22;;;;;;;5.70;3.20;;;;;;;10.34;72.96;98296.09;6223706;28;20287;-72
2022/01/01 03:48:24;;;;;;;7.33;3.03;;;;;;;10.35;72.74;98295.13;6219751;28;20230;-72
2022/01/01 03:51:27;;;;;;;3.47;2.50;;;;;;;10.35;72.58;98295.97;6221441;28;20248;-72
2022/01/01 03:54:29;;;;;;;3.87;2.73;;;;;;;10.49;72.16;98297.63;6212530;28;20297;-72
2022/01/01 03:57:31;;;;;;;3.27;2.50;;;;;;;10.48;72.36;98308.31;6226160;28;20233;-72
2022/01/01 04:00:33;;;;;;;3.53;2.80;;;;;;;10.47;72.60;98314.56;6224814;28;20239;-72
2022/01/01 04:03:36;;;;;;;3.27;2.97;;;;;;;10.47;72.51;98323.31;6213056;28;20384;-72
2022/01/01 04:06:38;;;;;;;4.00;3.00;;;;;;;10.38;72.72;98318.69;6220964;28;20378;-72
2022/01/01 04:09:40;;;;;;;4.17;3.07;;;;;;;10.34;72.48;98315.41;6214218;28;20250;-72
2022/01/01 04:12:41;;;;;;;3.27;2.17;;;;;;;10.34;73.00;98318.03;6218897;28;20236;-72
2022/01/01 04:15:43;;;;;;;3.90;2.57;;;;;;;10.34;72.11;98318.03;6220560;28;20584;-73
2022/01/01 04:18:45;;;;;;;3.20;2.77;;;;;;;10.44;72.17;98307.69;6208527;28;20559;-72
2022/01/01 04:21:48;;;;;;;2.70;2.37;;;;;;;10.37;72.21;98314.34;6214847;28;20273;-72
2022/01/01 04:24:50;;;;;;;2.83;2.50;;;;;;;10.38;72.45;98320.47;6210214;28;20221;-72
2022/01/01 04:27:54;;;;;;;3.60;2.30;;;;;;;10.55;71.81;98330.69;6211038;28;20233;-72
2022/01/01 04:30:57;;;;;;;5.83;2.50;;;;;;;10.53;71.86;98322.88;6220534;28;20232;-72
2022/01/01 04:34:11;;;;;;;3.20;2.47;;;;;;;10.56;71.33;98308.63;6214000;28;20236;-73
2022/01/01 04:37:15;;;;;;;4.27;2.50;;;;;;;10.60;71.22;98329.41;6218394;28;20226;-72
2022/01/01 04:40:17;;;;;;;3.07;2.67;;;;;;;10.66;70.83;98313.16;6218334;28;20269;-72
2022/01/01 04:43:19;;;;;;;2.40;1.90;;;;;;;10.59;71.46;98318.94;6214079;28;20232;-72
2022/01/01 04:46:21;;;;;;;3.53;2.80;;;;;;;10.54;71.38;98303.44;6208472;28;20717;-72
2022/01/01 04:49:23;;;;;;;2.57;2.13;;;;;;;10.59;71.19;98314.50;6225826;28;20232;-72
2022/01/01 04:52:25;;;;;;;2.83;2.53;;;;;;;10.54;71.05;98303.44;6197225;28;20244;-72
2022/01/01 04:55:27;;;;;;;3.00;2.67;;;;;;;10.52;71.21;98309.78;6216716;28;20237;-71
2022/01/01 04:58:29;;;;;;;3.10;2.67;;;;;;;10.42;71.54;98311.38;6232424;28;20240;-72
2022/01/01 05:01:31;;;;;;;3.40;3.10;;;;;;;10.44;71.45;98297.13;6224116;28;20324;-72
2022/01/01 05:04:35;;;;;;;4.17;2.70;;;;;;;10.41;71.34;98313.16;6219448;28;20231;-72
2022/01/01 05:07:38;;;;;;;3.40;2.47;;;;;;;10.30;71.48;98310.41;6208040;28;20234;-72
2022/01/01 05:10:40;;;;;;;4.40;2.97;;;;;;;10.16;72.33;98307.88;6214887;28;20698;-72
2022/01/01 05:13:42;;;;;;;3.97;2.70;;;;;;;10.17;72.37;98322.75;6219164;28;20724;-72
2022/01/01 05:16:45;;;;;;;4.77;2.63;;;;;;;10.14;72.63;98328.22;6218472;28;20275;-72
2022/01/01 05:19:47;;;;;;;4.87;3.00;;;;;;;10.21;72.46;98342.72;6218386;28;20229;-72
2022/01/01 05:22:49;;;;;;;3.43;2.70;;;;;;;10.20;72.47;98341.88;6223042;28;20311;-72
2022/01/01 05:25:51;;;;;;;3.50;2.70;;;;;;;10.09;72.42;98344.34;6207502;28;20338;-72
2022/01/01 05:28:53;;;;;;;4.17;2.57;;;;;;;9.89;73.54;98352.75;6224067;28;20228;-72
2022/01/01 05:31:55;;;;;;;4.40;3.30;;;;;;;9.74;74.13;98352.00;6217817;28;20317;-72
2022/01/01 05:34:57;;;;;;;3.43;2.90;;;;;;;9.67;74.12;98377.06;6208894;28;20224;-72
2022/01/01 05:37:59;;;;;;;4.30;3.63;;;;;;;9.59;74.42;98359.09;6210584;28;20223;-72
2022/01/01 05:41:21;;;;;;;3.73;3.00;;;;;;;9.41;75.44;98365.56;6227397;28;20227;-71
2022/01/01 05:44:23;;;;;;;5.97;3.57;;;;;;;9.34;75.82;98360.81;6219279;28;20310;-72
2022/01/01 05:47:26;;;;;;;6.03;3.40;;;;;;;9.23;75.98;98386.03;6216306;28;20220;-72
2022/01/01 05:50:28;;;;;;;7.03;4.10;;;;;;;9.19;76.61;98379.28;6237782;28;20235;-72
2022/01/01 05:53:30;;;;;;;5.63;4.03;;;;;;;9.17;76.92;98370.66;6226673;28;20310;-71
2022/01/01 05:56:32;;;;;;;5.67;4.03;;;;;;;9.32;77.10;98387.25;6224552;28;20713;-71
2022/01/01 05:59:34;;;;;;;4.87;3.57;;;;;;;9.51;76.29;98386.91;6225601;28;20222;-72
2022/01/01 06:02:40;;;;;;;5.47;4.20;;;;;;;9.54;76.51;98382.28;6227765;28;20236;-73
2022/01/01 06:05:43;;;;;;;5.73;4.30;;;;;;;9.58;76.42;98391.66;6222495;28;20319;-72
2022/01/01 06:08:45;;;;;;;4.70;3.10;;;;;;;9.60;75.82;98397.69;6229680;28;20250;-72
2022/01/01 06:11:47;;;;;;;4.33;3.77;;;;;;;9.66;75.85;98399.09;6217492;28;20707;-71
2022/01/01 06:14:49;;;;;;;5.03;3.67;;;;;;;9.79;75.54;98394.69;6225763;28;20234;-72
2022/01/01 06:17:51;;;;;;;4.40;3.57;;;;;;;9.78;75.34;98408.81;6212813;28;20393;-72
2022/01/01 06:20:53;;;;;;;5.13;4.33;;;;;;;9.73;75.74;98404.81;6226570;28;20230;-73
2022/01/01 06:23:55;;;;;;;6.80;3.83;;;;;;;9.69;75.81;98408.56;6224712;28;20315;-72
2022/01/01 06:26:57;;;;;;;3.97;3.23;;;;;;;9.66;76.68;98407.00;6214634;28;20229;-72
2022/01/01 06:29:59;;;;;;;4.87;3.33;;;;;;;9.69;75.97;98421.75;6218503;28;20244;-72
2022/01/01 06:33:11;;;;;;;3.43;2.83;;;;;;;9.66;75.98;98409.66;6233491;28;20236;-71
2022/01/01 06:36:13;;;;;;;4.67;3.57;;;;;;;9.61;77.10;98425.75;6222504;28;20232;-71
2022/01/01 06:39:15;;;;;;;6.23;3.83;;;;;;;9.63;76.83;98415.94;6226538;28;20216;-72
2022/01/01 06:42:17;;;;;;;4.87;3.97;;;;;;;9.78;76.33;98421.19;6219078;28;20218;-72
2022/01/01 06:45:19;;;;;;;4.50;3.23;;;;;;;9.83;76.45;98419.09;6226124;28;20222;-72
2022/01/01 06:48:21;;;;;;;3.23;2.73;;;;;;;9.83;75.86;98427.84;6215127;28;20390;-72
2022/01/01 06:51:23;;;;;;;3.40;2.97;;;;;;;9.79;76.51;98430.75;6220608;28;20240;-72
2022/01/01 06:54:25;;;;;;;3.43;3.10;;;;;;;9.74;77.02;98427.59;6223047;28;20700;-72
2022/01/01 06:57:27;;;;;;;3.93;2.90;;;;;;;9.70;76.67;98429.56;6213496;28;20474;-73
2022/01/01 07:00:30;;;;;;;4.30;3.50;;;;;;;9.73;76.40;98439.06;6211727;28;20693;-71
2022/01/01 07:03:32;;;;;;;6.20;3.50;;;;;;;9.85;76.21;98435.66;6214910;28;20332;-72
2022/01/01 07:06:34;;;;;;;4.57;3.30;;;;;;;9.88;75.55;98431.00;6217881;28;20228;-72
2022/01/01 07:09:36;;;;;;;4.27;2.70;;;;;;;9.99;75.36;98425.88;6221669;28;20233;-72
2022/01/01 07:12:39;;;;;;;3.17;2.87;;;;;;;10.05;75.56;98432.56;6214352;28;20333;-71
2022/01/01 07:15:41;;;;;;;3.93;2.97;;;;;;;10.14;74.14;98423.19;6211229;28;20343;-72
2022/01/01 07:18:43;;;;;;;4.67;2.77;;;;;;;10.16;74.39;98416.88;6218776;28;20232;-72
2022/01/01 07:21:45;;;;;;;3.43;2.67;;;;;;;10.16;73.75;98434.47;6228616;28;20231;-68
2022/01/01 07:24:47;;;;;;;3.10;2.80;;;;;;;10.19;73.49;98429.00;6201992;28;20316;-72
2022/01/01 07:27:49;;;;;;;4.27;3.10;;;;;;;10.18;73.66;98437.91;6219903;28;20237;-71
2022/01/01 07:30:51;;;;;;;4.50;2.90;;;;;;;10.12;73.67;98440.88;6219690;28;20221;-72
2022/01/01 07:33:53;;;;;;;3.90;2.70;;;;;;;10.21;72.67;98438.50;6218766;28;20236;-72
2022/01/01 07:36:55;;;;;;;3.33;2.77;;;;;;;10.30;72.59;98422.06;6216508;28;20225;-72
2022/01/01 07:39:57;;;;;;;3.60;2.50;;;;;;;10.32;72.80;98424.63;6222091;28;20217;-72
2022/01/01 07:42:58;;;;;;;3.67;2.43;;;;;;;10.37;71.67;98421.69;6220437;28;20220;-71
2022/01/01 07:46:01;;;;;;;2.43;2.23;;;;;;;10.41;71.69;98433.69;6214955;28;20643;-72
2022/01/01 07:49:03;;;;;;;5.07;2.60;;;;;;;10.49;70.46;98426.94;6211814;28;20237;-72
2022/01/01 07:52:05;;;;;;;2.57;2.03;;;;;;;10.59;70.22;98435.06;6226124;28;20838;-72
2022/01/01 07:55:08;;;;;;;3.87;2.43;;;;;;;10.59;69.88;98425.38;6214787;28;20225;-72
2022/01/01 07:58:10;;;;;;;3.40;2.20;;;;;;;10.66;69.58;98415.25;6214665;28;20231;-72
2022/01/01 08:01:12;;;;;;;2.73;2.30;;;;;;;10.67;69.48;98428.34;6204844;28;20717;-72
2022/01/01 08:04:15;;;;;;;3.77;2.60;;;;;;;10.75;68.67;98430.47;6208847;28;20234;-71
2022/01/01 08:07:17;;;;;;;2.97;2.00;;;;;;;10.76;69.00;98444.50;6207746;28;20231;-72
2022/01/01 08:10:39;;;;;;;2.27;1.97;;;;;;;10.72;69.19;98430.66;6212434;28;20929;-72
2022/01/01 08:13:41;;;;;;;2.20;1.97;;;;;;;10.66;69.60;98431.94;6204841;28;20251;-72
2022/01/01 08:16:57;;;;;;;2.47;1.80;;;;;;;10.64;69.49;98433.00;6213559;28;20225;-72
2022/01/01 08:19:59;;;;;;;2.30;2.10;;;;;;;10.65;69.78;98442.59;6207294;28;20686;-72
2022/01/01 08:23:01;;;;;;;4.03;2.17;;;;;;;10.65;69.97;98438.16;6209727;28;20605;-72
2022/01/01 08:26:03;;;;;;;2.40;2.00;;;;;;;10.67;70.33;98430.16;6219420;28;20236;-72
2022/01/01 08:29:05;;;;;;;3.37;2.07;;;;;;;10.75;70.14;98438.38;6220585;28;20265;-72
2022/01/01 08:32:11;;;;;;;2.23;1.83;;;;;;;10.87;69.79;98437.53;6215304;28;20395;-72
2022/01/01 08:35:13;;;;;;;3.93;2.30;;;;;;;10.98;69.45;98444.72;6207873;28;20610;-72
2022/01/01 08:38:15;;;;;;;2.50;2.30;;;;;;;11.17;69.12;98438.97;6211131;28;20226;-72
2022/01/01 08:41:17;;;;;;;3.70;2.10;;;;;;;11.43;67.93;98445.91;6210001;28;20691;-72
2022/01/01 08:44:19;;;;;;;5.07;2.37;;;;;;;11.66;66.94;98441.59;6206687;28;20972;-72
2022/01/01 08:47:25;;;;;;;2.67;2.10;;;;;;;11.86;66.39;98451.63;6210217;28;21026;-72
2022/01/01 08:50:27;;;;;;;2.23;1.93;;;;;;;12.01;65.51;98450.47;6206824;28;20225;-72
2022/01/01 08:53:29;;;;;;;3.27;2.10;;;;;;;12.15;64.62;98457.41;6215021;28;20232;-72
2022/01/01 08:56:34;;;;;;;3.37;2.17;;;;;;;12.30;64.76;98455.41;6227525;28;20611;-72
2022/01/01 08:59:43;;;;;;;3.33;2.33;;;;;;;12.42;63.91;98454.47;6220731;28;20367;-72
2022/01/01 09:02:45;;;;;;;2.70;2.03;;;;;;;12.47;63.63;98450.53;6207633;28;20225;-72
2022/01/01 09:05:47;;;;;;;3.80;2.13;;;;;;;12.53;63.62;98451.88;6208973;28;20392;-72
2022/01/01 09:09:07;;;;;;;3.33;2.17;;;;;;;12.42;63.44;98460.63;6220999;28;20231;-72
2022/01/01 09:12:10;;;;;;;2.70;1.80;;;;;;;12.37;64.31;98457.50;6209087;28;20225;-72
2022/01/01 09:15:13;;;;;;;2.90;2.20;;;;;;;12.40;63.92;98459.88;6204827;28;20231;-72
2022/01/01 09:18:15;;;;;;;3.07;2.10;;;;;;;12.44;63.92;98468.44;6204889;28;20238;-72
2022/01/01 09:21:17;;;;;;;4.73;2.13;;;;;;;12.26;63.98;98465.38;6205670;28;20230;-72
2022/01/01 09:24:19;;;;;;;2.37;1.80;;;;;;;12.22;64.23;98461.25;6202681;28;20652;-72
2022/01/01 09:27:21;;;;;;;3.27;2.20;;;;;;;12.24;64.90;98456.72;6204460;28;20207;-72
2022/01/01 09:30:23;;;;;;;2.30;2.00;;;;;;;12.32;64.38;98453.47;6207094;28;20242;-71
2022/01/01 09:33:29;;;;;;;2.17;1.97;;;;;;;12.50;63.73;98458.22;6207789;28;20231;-72
2022/01/01 09:36:33;;;;;;;2.60;1.53;;;;;;;12.73;63.62;98453.84;6210738;28;20228;-72
2022/01/01 09:39:35;;;;;;;2.73;2.00;;;;;;;12.90;62.81;98463.13;6231725;28;20276;-72
2022/01/01 09:42:36;;;;;;;3.17;2.00;;;;;;;13.03;62.46;98463.03;6219720;28;20305;-72
2022/01/01 09:45:41;;;;;;;2.63;1.90;;;;;;;13.15;62.16;98462.13;6214723;28;20232;-72
2022/01/01 09:48:43;;;;;;;3.27;2.13;;;;;;;13.12;62.49;98465.81;6199410;28;20248;-72
2022/01/01 09:51:46;;;;;;;2.13;1.93;;;;;;;13.05;63.29;98467.25;6200172;28;20580;-72
2022/01/01 09:54:48;;;;;;;2.47;1.80;;;;;;;12.97;62.54;98474.13;6205803;28;20235;-72
2022/01/01 09:57:50;;;;;;;2.27;1.60;;;;;;;13.05;62.81;98472.56;6214552;28;20656;-72
2022/01/01 10:00:52;;;;;;;2.93;1.80;;;;;;;13.12;62.83;98480.88;6205113;28;20361;-72
2022/01/01 10:03:58;;;;;;;3.13;2.00;;;;;;;13.13;62.73;98466.66;6210242;28;20326;-72
2022/01/01 10:07:05;;;;;;;4.33;2.30;;;;;;;13.10;62.63;98488.94;6222003;28;20219;-72
2022/01/01 10:10:40;;;;;;;2.13;1.70;;;;;;;13.11;62.19;98498.56;6205628;28;20255;-72
2022/01/01 10:13:43;;;;;;;2.97;1.93;;;;;;;13.16;62.59;98507.06;6241769;28;20358;-72
2022/01/01 10:16:45;;;;;;;2.93;1.90;;;;;;;13.21;62.71;98506.69;6239759;28;20268;-72
2022/01/01 10:19:50;;;;;;;2.27;1.80;;;;;;;13.11;63.01;98501.22;6233317;28;20599;-72
2022/01/01 10:22:52;;;;;;;3.97;2.00;;;;;;;13.19;62.66;98511.25;6228544;28;20375;-72
2022/01/01 10:29:39;;;;;;;3.97;2.30;;;;;;;13.14;62.80;98502.81;6229714;28;20614;-72
2022/01/01 10:32:59;;;;;;;2.27;1.77;;;;;;;13.10;61.64;98514.59;6225260;28;20502;-72
2022/01/01 10:36:04;;;;;;;1.50;1.40;;;;;;;13.24;61.78;98506.44;6233402;28;20379;-72
2022/01/01 10:39:11;;;;;;;2.33;1.70;;;;;;;13.34;61.98;98510.06;6248103;28;20950;-72
2022/01/01 10:42:13;;;;;;;3.10;1.77;;;;;;;13.36;61.08;98510.81;6241847;28;20234;-72
2022/01/01 10:45:48;;;;;;;2.90;1.70;;;;;;;13.47;61.00;98526.72;6245844;28;20218;-72
2022/01/01 10:48:57;;;;;;;2.93;2.10;;;;;;;13.49;61.36;98518.63;6246807;28;20224;-72
2022/01/01 10:52:18;;;;;;;3.27;2.10;;;;;;;13.49;60.94;98514.16;6215108;28;20343;-72
2022/01/01 10:55:22;;;;;;;2.53;2.00;;;;;;;13.54;62.02;98513.81;6216778;28;20608;-72
2022/01/01 10:58:31;;;;;;;3.37;1.90;;;;;;;13.49;61.04;98524.75;6206805;28;20602;-72
2022/01/01 11:01:40;;;;;;;2.80;2.00;;;;;;;13.33;60.59;98526.09;6217791;28;20227;-72
2022/01/01 11:04:43;;;;;;;2.40;1.97;;;;;;;13.47;61.64;98526.72;6236542;28;20231;-72
2022/01/01 11:07:52;;;;;;;2.57;2.10;;;;;;;13.35;61.20;98518.88;6256060;28;20218;-72
2022/01/01 11:10:55;;;;;;;2.67;1.90;;;;;;;13.36;61.88;98512.59;6254632;28;20684;-73
2022/01/01 11:13:58;;;;;;;2.40;1.60;;;;;;;13.41;61.49;98521.88;6231583;28;20771;-72
2022/01/01 11:17:01;;;;;;;2.93;2.03;;;;;;;13.40;60.79;98522.00;6234277;28;20728;-72
2022/01/01 11:20:05;;;;;;;5.37;2.20;;;;;;;13.42;60.86;98536.81;6246852;28;20885;-72
2022/01/01 11:23:09;;;;;;;2.30;2.00;;;;;;;13.21;61.25;98518.13;6242187;28;20220;-72
2022/01/01 11:26:11;;;;;;;3.17;2.27;;;;;;;13.14;61.85;98527.53;6236837;28;20237;-72
2022/01/01 11:29:14;;;;;;;3.43;2.20;;;;;;;13.16;61.58;98525.63;6225526;28;20306;-72
2022/01/01 11:32:20;;;;;;;3.40;1.70;;;;;;;13.27;61.32;98528.28;6254075;28;20720;-72
2022/01/01 11:35:32;;;;;;;2.40;1.53;;;;;;;13.35;62.08;98524.19;6253151;28;20238;-72
2022/01/01 11:38:36;;;;;;;2.47;1.67;;;;;;;13.29;62.28;98523.69;6256602;28;20231;-78
2022/01/01 11:41:44;;;;;;;1.90;1.50;;;;;;;13.15;61.93;98510.66;6258305;28;20229;-77
2022/01/01 11:44:51;;;;;;;3.47;1.60;;;;;;;13.03;62.83;98510.72;6257956;28;20694;-79
2022/01/01 11:48:25;;;;;;;2.03;1.60;;;;;;;12.95;62.56;98511.31;6248014;28;20231;-77
2022/01/01 11:51:33;;;;;;;1.73;1.63;;;;;;;12.90;62.58;98510.81;6235268;28;20301;-77
2022/01/01 11:54:38;;;;;;;1.90;1.63;;;;;;;12.77;62.79;98504.78;6253302;28;20237;-78
2022/01/01 11:57:59;;;;;;;2.20;1.90;;;;;;;12.72;63.27;98525.47;6258184;28;20234;-76
2022/01/01 12:01:10;;;;;;;2.00;1.60;;;;;;;12.75;63.32;98536.69;6257164;28;20233;-77
2022/01/01 12:04:27;;;;;;;1.73;1.57;;;;;;;12.64;63.15;98531.34;6239486;28;20263;-77
2022/01/01 12:07:30;;;;;;;2.40;1.67;;;;;;;12.62;64.06;98540.34;6248193;28;20239;-76
2022/01/01 12:10:36;;;;;;;1.60;1.47;;;;;;;12.60;64.20;98548.41;6254807;28;20240;-77
2022/01/01 12:13:39;;;;;;;1.83;1.50;;;;;;;12.51;63.85;98551.75;6257033;28;20641;-79
2022/01/01 12:16:49;;;;;;;1.77;1.33;;;;;;;12.52;63.76;98543.69;6246214;28;20230;-77
2022/01/01 12:19:55;;;;;;;3.30;1.63;;;;;;;12.49;63.56;98546.56;6257209;28;20596;-77
2022/01/01 12:23:00;;;;;;;1.87;1.20;;;;;;;12.42;63.09;98555.94;6259225;28;20253;-78
2022/01/01 12:26:11;;;;;;;1.90;1.33;;;;;;;12.39;62.94;98566.72;6254602;28;20607;-73
2022/01/01 12:29:14;;;;;;;2.43;1.47;;;;;;;12.39;62.36;98553.50;6258739;28;20264;-77
2022/01/01 12:32:36;;;;;;;1.60;1.30;;;;;;;12.41;62.62;98548.94;6260615;28;20229;-76
2022/01/01 12:35:47;;;;;;;1.33;1.00;;;;;;;12.45;62.77;98561.00;6256322;28;20235;-78
2022/01/01 12:38:55;;;;;;;2.13;1.30;;;;;;;12.43;62.32;98559.41;6256990;28;20569;-77
2022/01/01 12:41:57;;;;;;;2.40;1.13;;;;;;;12.46;61.72;98552.09;6253760;28;20245;-74
2022/01/01 12:45:03;;;;;;;1.23;1.10;;;;;;;12.52;61.63;98548.16;6253652;28;20235;-77
2022/01/01 12:48:05;;;;;;;2.07;1.20;;;;;;;12.56;61.82;98549.63;6240868;28;20321;-75
2022/01/01 12:51:18;;;;;;;3.10;1.17;;;;;;;12.61;61.28;98544.81;6256630;28;20245;-77
2022/01/01 12:54:26;;;;;;;1.13;1.00;;;;;;;12.61;62.26;98550.09;6243494;28;20283;-77
2022/01/01 12:57:31;;;;;;;1.53;1.00;;;;;;;12.61;61.89;98557.19;6230678;28;20226;-76
2022/01/01 13:00:38;;;;;;;1.77;1.10;;;;;;;12.72;61.33;98551.94;6258756;28;20230;-77
2022/01/01 13:03:43;;;;;;;2.10;1.60;;;;;;;12.74;61.25;98555.34;6257501;28;20246;-76
2022/01/01 13:06:51;;;;;;;2.17;1.60;;;;;;;12.81;61.98;98548.59;6259311;28;20272;-75
2022/01/01 13:10:00;;;;;;;2.20;1.30;;;;;;;12.81;61.24;98565.34;6253494;28;20265;-77
2022/01/01 13:13:06;;;;;;;2.27;1.53;;;;;;;12.86;61.33;98557.91;6255779;28;20392;-76
2022/01/01 13:16:11;;;;;;;1.90;1.50;;;;;;;12.82;61.51;98567.03;6244944;28;20240;-78
2022/01/01 13:19:13;;;;;;;2.13;1.60;;;;;;;12.89;61.39;98572.72;6241669;28;20303;-76
2022/01/01 13:22:15;;;;;;;1.20;1.07;;;;;;;12.93;60.95;98575.03;6258403;28;20245;-76
2022/01/01 13:25:17;;;;;;;1.87;1.33;;;;;;;12.91;61.35;98570.78;6257292;28;20308;-76
2022/01/01 13:28:23;;;;;;;2.27;1.70;;;;;;;12.81;61.87;98580.41;6256701;28;20239;-77
2022/01/01 13:31:26;;;;;;;3.30;1.83;;;;;;;12.69;61.76;98586.59;6256772;28;20697;-75
2022/01/01 13:34:29;;;;;;;2.00;1.47;;;;;;;12.56;62.63;98582.25;6255158;28;20230;-76
2022/01/01 13:37:32;;;;;;;3.93;1.87;;;;;;;12.45;63.04;98586.63;6254346;28;20230;-77
2022/01/01 13:40:36;;;;;;;1.93;1.40;;;;;;;12.43;62.76;98581.44;6253322;28;20235;-77
2022/01/01 13:43:38;;;;;;;3.40;1.43;;;;;;;12.42;62.83;98584.19;6252196;28;20227;-78
2022/01/01 13:46:40;;;;;;;1.57;1.23;;;;;;;12.36;63.06;98592.59;6247156;28;20230;-75
2022/01/01 13:49:58;;;;;;;2.03;1.30;;;;;;;12.37;63.12;98597.78;6232926;28;20249;-78
2022/01/01 13:53:07;;;;;;;1.70;1.40;;;;;;;12.24;62.69;98601.44;6231368;28;20227;-75
2022/01/01 13:56:12;;;;;;;3.40;2.10;;;;;;;12.22;63.21;98592.75;6232289;28;20231;-72
2022/01/01 13:59:14;;;;;;;1.70;1.40;;;;;;;12.19;63.18;98609.69;6225832;28;20232;-72
2022/01/01 14:02:16;;;;;;;1.87;1.30;;;;;;;12.14;63.33;98611.81;6249468;28;20227;-72
2022/01/01 14:05:20;;;;;;;1.67;1.17;;;;;;;12.12;63.42;98609.28;6254480;28;20230;-71
2022/01/01 14:08:22;;;;;;;1.93;1.40;;;;;;;12.07;63.42;98618.53;6255786;28;20242;-72
2022/01/01 14:11:30;;;;;;;1.93;1.70;;;;;;;12.01;63.97;98608.34;6257096;28;20233;-71
2022/01/01 14:14:32;;;;;;;2.63;1.30;;;;;;;11.94;63.82;98613.25;6256248;28;20733;-72
2022/01/01 14:17:59;;;;;;;3.33;1.87;;;;;;;11.87;64.00;98619.94;6241546;28;20236;-72
2022/01/01 14:21:01;;;;;;;2.10;1.40;;;;;;;11.84;64.38;98625.44;6255915;28;20284;-71
2022/01/01 14:24:04;;;;;;;2.30;1.50;;;;;;;11.82;64.04;98614.97;6255013;28;20254;-72
2022/01/01 14:27:06;;;;;;;2.90;1.40;;;;;;;11.76;64.26;98618.03;6256467;28;20216;-72
2022/01/01 14:30:09;;;;;;;1.13;0.97;;;;;;;11.66;65.14;98616.13;6255705;28;20272;-72
2022/01/01 14:33:12;;;;;;;1.63;1.27;;;;;;;11.57;65.27;98609.69;6254322;28;20324;-72
2022/01/01 14:36:15;;;;;;;1.80;1.20;;;;;;;11.50;65.53;98616.31;6253740;28;20312;-72